createdAt,value
2017-12-20T00:01:37.203Z,10.87
2017-12-20T00:04:04.710Z,11.07
2017-12-20T00:06:32.167Z,11.30
2017-12-20T00:08:59.657Z,11.10
2017-12-20T00:11:27.145Z,11.27
2017-12-20T00:13:55.412Z,9.60
2017-12-20T00:16:23.660Z,9.73
2017-12-20T00:18:51.154Z,10.80
2017-12-20T00:21:19.406Z,10.88
2017-12-20T00:23:46.903Z,10.53
2017-12-20T00:26:14.373Z,10.27
2017-12-20T00:28:41.874Z,10.23
2017-12-20T00:31:09.355Z,10.10
2017-12-20T00:33:37.616Z,10.27
2017-12-20T00:36:05.095Z,11.03
2017-12-20T00:38:33.353Z,11.17
2017-12-20T00:41:00.824Z,11.77
2017-12-20T00:43:29.067Z,12.23
2017-12-20T00:45:56.545Z,10.77
2017-12-20T00:48:24.053Z,10.43
2017-12-20T00:50:51.540Z,9.70
2017-12-20T00:53:19.965Z,11.33
2017-12-20T00:55:48.246Z,10.27
2017-12-20T00:58:16.505Z,10.07
2017-12-20T01:00:44.753Z,10.87
2017-12-20T01:03:12.242Z,10.70
2017-12-20T01:05:40.496Z,10.77
2017-12-20T01:08:08.039Z,9.70
2017-12-20T01:10:35.619Z,10.97
2017-12-20T01:13:03.095Z,11.03
2017-12-20T01:15:31.363Z,9.87
2017-12-20T01:17:58.834Z,10.23
2017-12-20T01:20:27.099Z,9.53
2017-12-20T01:22:55.332Z,10.13
2017-12-20T01:25:22.818Z,9.27
2017-12-20T01:27:50.288Z,9.60
2017-12-20T01:30:18.533Z,9.80
2017-12-20T01:32:46.017Z,8.97
2017-12-20T01:35:13.501Z,9.20
2017-12-20T01:37:40.977Z,9.20
2017-12-20T01:40:08.456Z,9.03
2017-12-20T01:42:35.925Z,9.00
2017-12-20T01:45:03.412Z,11.90
2017-12-20T01:47:30.887Z,10.00
2017-12-20T01:49:58.389Z,16.50
2017-12-20T01:52:25.859Z,9.80
2017-12-20T01:54:53.349Z,8.83
2017-12-20T01:57:21.593Z,10.20
2017-12-20T01:59:49.083Z,10.00
2017-12-20T02:02:17.325Z,11.00
2017-12-20T02:04:44.795Z,9.77
2017-12-20T02:07:12.273Z,8.87
2017-12-20T02:09:40.592Z,9.50
2017-12-20T02:12:08.060Z,9.70
2017-12-20T02:14:35.549Z,8.53
2017-12-20T02:17:03.018Z,10.20
2017-12-20T02:19:31.253Z,8.60
2017-12-20T02:21:58.750Z,8.20
2017-12-20T02:24:26.223Z,8.40
2017-12-20T02:26:54.472Z,8.17
2017-12-20T02:29:22.048Z,7.62
2017-12-20T02:31:50.298Z,8.67
2017-12-20T02:34:17.780Z,8.23
2017-12-20T02:36:46.033Z,8.73
2017-12-20T02:39:13.527Z,8.77
2017-12-20T02:41:41.778Z,8.07
2017-12-20T02:44:09.245Z,8.80
2017-12-20T02:46:37.485Z,8.30
2017-12-20T02:49:04.964Z,8.13
2017-12-20T02:51:32.443Z,8.90
2017-12-20T02:54:00.677Z,8.03
2017-12-20T02:56:28.151Z,9.40
2017-12-20T02:58:55.633Z,8.00
2017-12-20T03:01:23.893Z,7.90
2017-12-20T03:03:51.369Z,7.27
2017-12-20T03:06:19.615Z,7.60
2017-12-20T03:08:47.085Z,7.73
2017-12-20T03:11:14.573Z,8.63
2017-12-20T03:13:42.146Z,7.43
2017-12-20T03:16:09.617Z,9.30
2017-12-20T03:18:37.085Z,9.30
2017-12-20T03:21:04.560Z,8.07
2017-12-20T03:23:32.749Z,8.07
2017-12-20T03:26:00.235Z,7.87
2017-12-20T03:28:28.466Z,8.77
2017-12-20T03:31:02.592Z,10.53
2017-12-20T03:33:30.058Z,8.60
2017-12-20T03:35:57.553Z,9.10
2017-12-20T03:38:25.036Z,8.67
2017-12-20T03:40:52.497Z,7.70
2017-12-20T03:43:20.005Z,7.77
2017-12-20T03:45:58.541Z,7.30
2017-12-20T03:48:26.040Z,8.83
2017-12-20T03:50:53.515Z,7.70
2017-12-20T03:53:20.999Z,9.47
2017-12-20T03:55:49.229Z,9.30
2017-12-20T03:58:16.733Z,8.80
2017-12-20T04:00:44.980Z,9.10
2017-12-20T04:03:12.547Z,8.90
2017-12-20T04:05:40.033Z,8.70
2017-12-20T04:08:07.509Z,9.60
2017-12-20T04:10:34.985Z,8.93
2017-12-20T04:13:02.483Z,9.20
2017-12-20T04:15:30.765Z,8.53
2017-12-20T04:17:59.034Z,8.87
2017-12-20T04:20:27.268Z,9.57
2017-12-20T04:22:54.744Z,9.30
2017-12-20T04:25:22.208Z,9.83
2017-12-20T04:27:49.693Z,8.63
2017-12-20T04:30:17.965Z,8.93
2017-12-20T04:32:46.229Z,9.27
2017-12-20T04:35:13.719Z,8.73
2017-12-20T04:37:41.213Z,8.40
2017-12-20T04:40:08.707Z,8.13
2017-12-20T04:42:36.368Z,7.93
2017-12-20T04:45:03.846Z,8.00
2017-12-20T04:47:31.329Z,9.80
2017-12-20T04:49:58.792Z,7.77
2017-12-20T04:52:26.283Z,8.00
2017-12-20T04:54:53.761Z,8.73
2017-12-20T04:57:21.994Z,7.90
2017-12-20T04:59:49.481Z,8.00
2017-12-20T05:02:16.970Z,8.40
2017-12-20T05:04:45.224Z,7.57
2017-12-20T05:07:12.721Z,9.70
2017-12-20T05:09:40.217Z,8.15
2017-12-20T05:12:07.708Z,7.90
2017-12-20T05:14:35.945Z,7.57
2017-12-20T05:17:03.416Z,8.02
2017-12-20T05:19:30.906Z,8.23
2017-12-20T05:21:59.140Z,8.43
2017-12-20T05:24:26.626Z,8.50
2017-12-20T05:26:54.098Z,9.37
2017-12-20T05:29:28.244Z,9.33
2017-12-20T05:31:55.720Z,10.30
2017-12-20T05:34:23.216Z,10.10
2017-12-20T05:36:52.004Z,13.90
2017-12-20T05:39:20.257Z,9.93
2017-12-20T05:41:47.748Z,9.27
2017-12-20T05:44:16.004Z,10.10
2017-12-20T05:46:43.489Z,9.90
2017-12-20T05:49:11.024Z,9.93
2017-12-20T05:51:38.499Z,9.37
2017-12-20T05:54:06.749Z,9.10
2017-12-20T05:56:34.210Z,9.47
2017-12-20T05:59:01.701Z,8.50
2017-12-20T06:01:29.227Z,9.45
2017-12-20T06:03:56.710Z,9.23
2017-12-20T06:06:24.949Z,9.67
2017-12-20T06:08:52.440Z,9.23
2017-12-20T06:11:20.676Z,7.97
2017-12-20T06:13:48.192Z,8.27
2017-12-20T06:16:15.676Z,8.40
2017-12-20T06:18:43.143Z,8.70
2017-12-20T06:21:10.628Z,9.50
2017-12-20T06:23:38.113Z,9.60
2017-12-20T06:26:05.596Z,7.73
2017-12-20T06:28:33.073Z,8.30
2017-12-20T06:31:00.568Z,8.73
2017-12-20T06:33:28.802Z,8.80
2017-12-20T06:35:56.292Z,7.90
2017-12-20T06:38:24.548Z,7.50
2017-12-20T06:40:52.050Z,8.20
2017-12-20T06:43:20.301Z,7.17
2017-12-20T06:45:47.793Z,7.43
2017-12-20T06:48:15.255Z,7.77
2017-12-20T06:50:42.793Z,8.60
2017-12-20T06:53:11.032Z,9.90
2017-12-20T06:55:38.525Z,11.17
2017-12-20T06:58:06.764Z,7.27
2017-12-20T07:00:34.245Z,7.83
2017-12-20T07:03:01.814Z,7.30
2017-12-20T07:05:30.051Z,7.60
2017-12-20T07:07:57.517Z,7.47
2017-12-20T07:10:25.015Z,7.30
2017-12-20T07:12:53.248Z,6.80
2017-12-20T07:15:20.746Z,6.10
2017-12-20T07:17:48.981Z,7.05
2017-12-20T07:20:16.488Z,7.70
2017-12-20T07:22:44.724Z,6.80
2017-12-20T07:25:12.218Z,6.20
2017-12-20T07:27:39.696Z,6.40
2017-12-20T07:30:07.168Z,6.10
2017-12-20T07:32:34.649Z,6.90
2017-12-20T07:35:03.646Z,6.53
2017-12-20T07:37:31.116Z,6.50
2017-12-20T07:39:58.599Z,6.68
2017-12-20T07:42:26.838Z,6.43
2017-12-20T07:44:54.307Z,7.30
2017-12-20T07:47:21.776Z,6.73
2017-12-20T07:49:49.846Z,6.40
2017-12-20T07:52:18.104Z,6.87
2017-12-20T07:54:45.577Z,6.07
2017-12-20T07:57:14.025Z,6.33
2017-12-20T07:59:41.505Z,7.43
2017-12-20T08:02:09.756Z,7.23
2017-12-20T08:04:37.260Z,8.63
2017-12-20T08:07:05.519Z,9.00
2017-12-20T08:09:33.761Z,9.93
2017-12-20T08:12:01.233Z,9.00
2017-12-20T08:14:28.700Z,8.40
2017-12-20T08:16:56.203Z,8.20
2017-12-20T08:19:23.667Z,8.47
2017-12-20T08:21:51.164Z,8.80
2017-12-20T08:24:18.636Z,8.10
2017-12-20T08:26:46.100Z,6.20
2017-12-20T08:29:13.588Z,7.10
2017-12-20T08:31:41.118Z,7.67
2017-12-20T08:34:08.602Z,7.00
2017-12-20T08:36:36.100Z,8.77
2017-12-20T08:39:03.579Z,7.27
2017-12-20T08:41:31.062Z,9.10
2017-12-20T08:43:59.304Z,7.97
2017-12-20T08:46:26.794Z,9.20
2017-12-20T08:48:55.040Z,7.50
2017-12-20T08:51:22.519Z,7.57
2017-12-20T08:53:50.764Z,8.00
2017-12-20T08:56:18.248Z,7.15
2017-12-20T08:58:45.725Z,6.90
2017-12-20T09:01:13.952Z,7.67
2017-12-20T09:03:41.460Z,6.77
2017-12-20T09:06:09.720Z,6.37
2017-12-20T09:08:37.206Z,5.87
2017-12-20T09:11:04.671Z,6.83
2017-12-20T09:13:32.150Z,7.00
2017-12-20T09:15:59.616Z,7.13
2017-12-20T09:18:27.112Z,8.65
2017-12-20T09:20:55.358Z,8.20
2017-12-20T09:23:22.856Z,8.23
2017-12-20T09:25:51.121Z,8.50
2017-12-20T09:28:19.366Z,6.57
2017-12-20T09:30:46.845Z,7.40
2017-12-20T09:33:14.312Z,5.37
2017-12-20T09:35:42.551Z,5.33
2017-12-20T09:38:10.041Z,6.03
2017-12-20T09:40:38.290Z,6.10
2017-12-20T09:43:05.768Z,6.13
2017-12-20T09:45:33.249Z,5.60
2017-12-20T09:48:01.493Z,5.30
2017-12-20T09:50:28.966Z,5.97
2017-12-20T09:52:57.214Z,5.20
2017-12-20T09:55:24.694Z,5.27
2017-12-20T09:57:52.971Z,5.30
2017-12-20T10:00:20.457Z,4.90
2017-12-20T10:02:47.946Z,4.87
2017-12-20T10:05:15.470Z,5.20
2017-12-20T10:07:43.700Z,6.90
2017-12-20T10:10:11.202Z,5.67
2017-12-20T10:12:38.663Z,5.93
2017-12-20T10:15:06.173Z,5.40
2017-12-20T10:17:33.648Z,5.57
2017-12-20T10:20:02.634Z,5.80
2017-12-20T10:22:30.874Z,4.77
2017-12-20T10:24:58.357Z,5.10
2017-12-20T10:27:25.837Z,5.10
2017-12-20T10:29:53.310Z,5.40
2017-12-20T10:32:21.540Z,6.53
2017-12-20T10:34:49.003Z,6.70
2017-12-20T10:37:16.474Z,5.73
2017-12-20T10:39:43.973Z,5.27
2017-12-20T10:42:11.432Z,5.20
2017-12-20T10:44:38.913Z,8.60
2017-12-20T10:47:06.401Z,6.97
2017-12-20T10:49:33.884Z,8.07
2017-12-20T10:52:02.122Z,6.70
2017-12-20T10:54:29.625Z,7.70
2017-12-20T10:56:57.891Z,7.03
2017-12-20T10:59:26.124Z,6.20
2017-12-20T11:01:53.615Z,5.70
2017-12-20T11:04:21.110Z,5.83
2017-12-20T11:06:48.607Z,5.23
2017-12-20T11:09:16.096Z,7.40
2017-12-20T11:11:44.345Z,8.63
2017-12-20T11:14:11.820Z,7.80
2017-12-20T11:16:39.316Z,11.13
2017-12-20T11:19:06.809Z,6.70
2017-12-20T11:21:34.280Z,7.03
2017-12-20T11:24:01.760Z,10.90
2017-12-20T11:26:30.001Z,6.97
2017-12-20T11:28:57.480Z,6.80
2017-12-20T11:31:25.728Z,8.57
2017-12-20T11:33:53.201Z,6.67
2017-12-20T11:36:20.672Z,5.20
2017-12-20T11:38:48.921Z,5.43
2017-12-20T11:41:16.411Z,5.83
2017-12-20T11:43:44.652Z,5.77
2017-12-20T11:46:12.133Z,5.57
2017-12-20T11:48:39.593Z,5.70
2017-12-20T11:51:07.083Z,8.55
2017-12-20T11:53:35.322Z,5.17
2017-12-20T11:56:02.819Z,7.13
2017-12-20T11:58:31.051Z,5.73
2017-12-20T12:00:58.535Z,5.07
2017-12-20T12:03:26.778Z,5.70
2017-12-20T12:05:54.251Z,22.50
2017-12-20T12:08:22.508Z,11.50
2017-12-20T12:10:50.035Z,6.20
2017-12-20T12:13:17.512Z,5.40
2017-12-20T12:15:44.993Z,6.03
2017-12-20T12:18:12.464Z,5.87
2017-12-20T12:20:40.726Z,6.67
2017-12-20T12:23:08.221Z,6.80
2017-12-20T12:25:36.470Z,6.70
2017-12-20T12:28:03.958Z,6.97
2017-12-20T12:30:32.178Z,7.60
2017-12-20T12:32:59.656Z,6.73
2017-12-20T12:35:27.135Z,7.60
2017-12-20T12:37:55.405Z,6.97
2017-12-20T12:40:23.653Z,7.57
2017-12-20T12:42:51.140Z,7.70
2017-12-20T12:45:19.395Z,8.57
2017-12-20T12:47:46.896Z,8.60
2017-12-20T12:50:14.383Z,7.10
2017-12-20T12:52:41.855Z,8.10
2017-12-20T12:55:09.318Z,7.47
2017-12-20T12:57:36.813Z,8.10
2017-12-20T13:00:05.082Z,7.17
2017-12-20T13:02:33.359Z,9.77
2017-12-20T13:05:01.597Z,9.13
2017-12-20T13:07:29.082Z,7.10
2017-12-20T13:09:56.563Z,8.70
2017-12-20T13:12:24.799Z,7.67
2017-12-20T13:14:52.290Z,7.53
2017-12-20T13:17:20.525Z,7.33
2017-12-20T13:19:48.935Z,7.70
2017-12-20T13:22:17.181Z,8.40
2017-12-20T13:24:44.658Z,7.70
2017-12-20T13:27:12.158Z,8.47
2017-12-20T13:29:39.633Z,8.47
2017-12-20T13:32:07.105Z,7.80
2017-12-20T13:34:34.591Z,8.60
2017-12-20T13:37:02.881Z,7.00
2017-12-20T13:39:31.239Z,7.10
2017-12-20T13:41:58.712Z,7.83
2017-12-20T13:44:26.951Z,8.53
2017-12-20T13:46:54.431Z,7.80
2017-12-20T13:49:21.900Z,8.50
2017-12-20T13:51:50.144Z,8.47
2017-12-20T13:54:17.644Z,7.95
2017-12-20T13:56:47.433Z,9.73
2017-12-20T13:59:14.929Z,8.93
2017-12-20T14:01:42.387Z,9.40
2017-12-20T14:04:09.876Z,8.20
2017-12-20T14:06:37.365Z,9.17
2017-12-20T14:09:04.865Z,9.37
2017-12-20T14:11:32.401Z,8.73
2017-12-20T14:14:00.664Z,9.00
2017-12-20T14:16:29.649Z,8.73
2017-12-20T14:18:57.141Z,8.50
2017-12-20T14:21:25.393Z,9.33
2017-12-20T14:23:52.880Z,9.07
2017-12-20T14:26:20.403Z,8.98
2017-12-20T14:28:47.904Z,9.80
2017-12-20T14:31:15.380Z,10.10
2017-12-20T14:33:42.884Z,9.37
2017-12-20T14:36:10.354Z,11.73
2017-12-20T14:38:58.313Z,10.77
2017-12-20T14:41:25.856Z,12.37
2017-12-20T14:43:54.137Z,17.30
2017-12-20T14:46:21.954Z,11.23
2017-12-20T14:48:49.466Z,10.33
2017-12-20T14:51:17.716Z,10.87
2017-12-20T14:53:46.739Z,9.77
2017-12-20T14:56:14.984Z,10.27
2017-12-20T14:58:42.468Z,10.93
2017-12-20T15:01:10.721Z,11.20
2017-12-20T15:03:38.201Z,9.97
2017-12-20T15:06:06.445Z,10.10
2017-12-20T15:08:34.702Z,10.63
2017-12-20T15:11:02.199Z,11.43
2017-12-20T15:13:30.465Z,11.00
2017-12-20T15:15:57.931Z,11.63
2017-12-20T15:18:26.178Z,17.23
2017-12-20T15:20:53.655Z,23.73
2017-12-20T15:23:21.152Z,21.70
2017-12-20T15:25:48.632Z,15.23
2017-12-20T15:28:16.112Z,16.77
2017-12-20T15:30:43.605Z,28.73
2017-12-20T15:33:11.843Z,22.67
2017-12-20T15:35:39.343Z,13.60
2017-12-20T15:38:07.597Z,12.90
2017-12-20T15:40:35.080Z,12.17
2017-12-20T15:43:02.561Z,10.60
2017-12-20T15:45:30.077Z,11.30
2017-12-20T15:47:58.340Z,16.97
2017-12-20T15:50:25.829Z,17.90
2017-12-20T15:52:54.066Z,12.50
2017-12-20T15:55:21.539Z,11.60
2017-12-20T15:57:49.792Z,13.83
2017-12-20T16:00:17.278Z,11.17
2017-12-20T16:02:46.287Z,13.62
2017-12-20T16:05:14.576Z,16.03
2017-12-20T16:07:42.048Z,17.83
2017-12-20T16:10:09.554Z,13.20
2017-12-20T16:12:37.027Z,14.03
2017-12-20T16:15:05.302Z,14.97
2017-12-20T16:17:33.560Z,18.47
2017-12-20T16:20:01.039Z,15.90
2017-12-20T16:22:29.275Z,15.23
2017-12-20T16:24:56.771Z,13.57
2017-12-20T16:27:25.018Z,13.07
2017-12-20T16:29:52.543Z,14.57
2017-12-20T16:32:20.000Z,18.43
2017-12-20T16:34:47.537Z,20.70
2017-12-20T16:37:15.057Z,23.98
2017-12-20T16:39:42.540Z,21.90
2017-12-20T16:42:10.812Z,19.10
2017-12-20T16:44:39.041Z,18.80
2017-12-20T16:47:06.641Z,16.67
2017-12-20T16:49:34.122Z,13.70
2017-12-20T16:52:01.604Z,12.50
2017-12-20T16:54:29.096Z,12.30
2017-12-20T16:56:56.572Z,13.17
2017-12-20T16:59:24.834Z,11.33
2017-12-20T17:01:52.410Z,10.10
2017-12-20T17:04:20.665Z,13.30
2017-12-20T17:06:49.677Z,11.17
2017-12-20T17:09:17.151Z,14.10
2017-12-20T17:11:45.392Z,13.00
2017-12-20T17:14:13.812Z,21.30
2017-12-20T17:16:42.076Z,19.87
2017-12-20T17:19:11.236Z,19.40
2017-12-20T17:21:39.568Z,14.67
2017-12-20T17:24:07.053Z,15.13
2017-12-20T17:26:34.542Z,15.97
2017-12-20T17:29:02.989Z,20.03
2017-12-20T17:31:30.517Z,19.87
2017-12-20T17:33:58.772Z,16.53
2017-12-20T17:36:26.272Z,16.30
2017-12-20T17:38:53.752Z,16.07
2017-12-20T17:41:21.280Z,17.10
2017-12-20T17:43:48.766Z,12.03
2017-12-20T17:46:16.316Z,12.93
2017-12-20T17:48:43.795Z,13.40
2017-12-20T17:51:11.289Z,14.90
2017-12-20T17:53:39.549Z,11.95
2017-12-20T17:56:07.074Z,11.80
2017-12-20T17:58:34.629Z,11.80
2017-12-20T18:01:02.133Z,15.70
2017-12-20T18:03:30.390Z,12.37
2017-12-20T18:05:57.901Z,16.27
2017-12-20T18:08:26.201Z,15.80
2017-12-20T18:10:53.677Z,19.93
2017-12-20T18:13:21.176Z,14.33
2017-12-20T18:15:49.425Z,12.85
2017-12-20T18:18:16.957Z,16.30
2017-12-20T18:20:44.448Z,15.40
2017-12-20T18:23:12.769Z,13.27
2017-12-20T18:25:40.253Z,15.17
2017-12-20T18:28:07.853Z,13.73
2017-12-20T18:30:36.096Z,15.63
2017-12-20T18:33:03.628Z,15.70
2017-12-20T18:35:31.245Z,22.37
2017-12-20T18:37:59.507Z,22.87
2017-12-20T18:40:27.808Z,19.73
2017-12-20T18:42:56.061Z,16.63
2017-12-20T18:45:23.532Z,17.30
2017-12-20T18:47:51.849Z,18.27
2017-12-20T18:50:19.360Z,18.17
2017-12-20T18:52:48.337Z,18.67
2017-12-20T18:55:15.895Z,17.83
2017-12-20T18:57:43.432Z,18.20
2017-12-20T19:00:11.006Z,22.17
2017-12-20T19:02:38.492Z,24.17
2017-12-20T19:05:06.803Z,18.40
2017-12-20T19:07:34.334Z,16.40
2017-12-20T19:10:02.582Z,15.67
2017-12-20T19:12:30.080Z,15.50
2017-12-20T19:14:58.465Z,13.60
2017-12-20T19:17:25.953Z,14.37
2017-12-20T19:19:53.516Z,13.60
2017-12-20T19:22:21.064Z,14.00
2017-12-20T19:24:48.610Z,11.50
2017-12-20T19:27:16.088Z,14.47
2017-12-20T19:29:43.650Z,12.70
2017-12-20T19:32:11.184Z,12.13
2017-12-20T19:34:38.716Z,10.83
2017-12-20T19:37:06.248Z,10.83
2017-12-20T19:39:33.791Z,10.83
2017-12-20T19:42:01.315Z,13.03
2017-12-20T19:44:28.858Z,13.93
2017-12-20T19:46:57.148Z,11.70
2017-12-20T19:49:25.456Z,12.57
2017-12-20T19:51:52.964Z,10.57
2017-12-20T19:54:21.291Z,10.37
2017-12-20T19:56:48.833Z,11.33
2017-12-20T19:59:16.414Z,10.43
2017-12-20T20:01:43.979Z,11.47
2017-12-20T20:04:11.511Z,10.17
2017-12-20T20:06:39.041Z,13.03
2017-12-20T20:09:07.346Z,12.30
2017-12-20T20:11:34.857Z,13.20
2017-12-20T20:14:02.397Z,12.50
2017-12-20T20:16:29.944Z,13.05
2017-12-20T20:18:57.499Z,13.50
2017-12-20T20:21:24.988Z,12.30
2017-12-20T20:23:52.516Z,10.70
2017-12-20T20:26:20.340Z,12.33
2017-12-20T20:28:48.640Z,11.13
2017-12-20T20:31:16.196Z,12.10
2017-12-20T20:33:43.716Z,10.77
2017-12-20T20:36:12.760Z,11.90
2017-12-20T20:38:40.312Z,10.57
2017-12-20T20:41:07.841Z,11.70
2017-12-20T20:43:35.382Z,11.17
2017-12-20T20:46:02.881Z,11.13
2017-12-20T20:48:31.372Z,11.12
2017-12-20T20:50:58.919Z,11.47
2017-12-20T20:53:27.207Z,10.87
2017-12-20T20:55:54.691Z,12.13
2017-12-20T20:58:22.235Z,12.23
2017-12-20T21:00:49.826Z,14.00
2017-12-20T21:03:17.324Z,15.70
2017-12-20T21:05:45.651Z,15.73
2017-12-20T21:08:13.170Z,13.60
2017-12-20T21:10:42.339Z,12.20
2017-12-20T21:13:09.861Z,11.20
2017-12-20T21:15:37.392Z,12.83
2017-12-20T21:18:04.925Z,11.70
2017-12-20T21:20:33.223Z,10.10
2017-12-20T21:23:00.750Z,9.77
2017-12-20T21:25:28.367Z,11.10
2017-12-20T21:27:55.905Z,10.63
2017-12-20T21:30:23.436Z,9.50
2017-12-20T21:32:51.719Z,9.97
2017-12-20T21:35:20.047Z,10.27
2017-12-20T21:37:47.760Z,10.33
2017-12-20T21:40:16.580Z,10.23
2017-12-20T21:42:44.912Z,12.30
2017-12-20T21:45:13.344Z,12.17
2017-12-20T21:47:40.900Z,10.70
2017-12-20T21:50:08.445Z,11.13
2017-12-20T21:52:35.979Z,12.30
2017-12-20T21:55:04.254Z,10.67
2017-12-20T21:57:31.824Z,11.20
2017-12-20T22:00:00.110Z,11.17
2017-12-20T22:02:27.636Z,10.10
2017-12-20T22:04:55.145Z,10.73
2017-12-20T22:07:22.655Z,10.80
2017-12-20T22:09:50.271Z,9.90
2017-12-20T22:12:17.827Z,11.57
2017-12-20T22:14:45.334Z,10.10
2017-12-20T22:17:12.860Z,8.53
2017-12-20T22:19:40.417Z,8.87
2017-12-20T22:22:07.949Z,10.07
2017-12-20T22:24:35.471Z,9.97
2017-12-20T22:27:03.008Z,10.33
2017-12-20T22:29:30.539Z,10.82
2017-12-20T22:31:58.020Z,12.27
2017-12-20T22:34:25.496Z,11.70
2017-12-20T22:36:53.035Z,12.00
2017-12-20T22:39:20.546Z,10.18
2017-12-20T22:41:48.104Z,10.73
2017-12-20T22:44:16.345Z,10.37
2017-12-20T22:46:43.882Z,9.70
2017-12-20T22:49:11.416Z,10.90
2017-12-20T22:51:38.891Z,10.00
2017-12-20T22:54:06.377Z,10.67
2017-12-20T22:56:33.864Z,10.40
2017-12-20T22:59:02.159Z,9.97
2017-12-20T23:01:29.627Z,10.57
2017-12-20T23:03:57.156Z,9.53
2017-12-20T23:06:25.445Z,9.80
2017-12-20T23:08:53.728Z,10.03
2017-12-20T23:11:21.257Z,10.50
2017-12-20T23:13:48.799Z,10.40
2017-12-20T23:16:16.270Z,12.50
2017-12-20T23:18:44.658Z,12.57
2017-12-20T23:21:12.125Z,11.80
2017-12-20T23:23:40.418Z,10.43
2017-12-20T23:26:07.885Z,9.87
2017-12-20T23:28:35.429Z,10.03
2017-12-20T23:31:03.721Z,10.27
2017-12-20T23:33:31.221Z,10.80
2017-12-20T23:35:58.699Z,9.90
2017-12-20T23:38:26.227Z,10.07
2017-12-20T23:40:53.695Z,10.77
2017-12-20T23:43:22.735Z,11.23
2017-12-20T23:45:50.217Z,10.93
2017-12-20T23:48:17.703Z,12.77
2017-12-20T23:50:45.200Z,11.60
2017-12-20T23:53:13.448Z,11.30
2017-12-20T23:55:40.959Z,11.98
2017-12-20T23:58:08.505Z,11.70
